sensor_id;sensor_type;location;lat;lon;timestamp;P1;durP1;ratioP1;P2;durP2;ratioP2
21416;SDS011;10869;52.238;10.716;2023-12-29T04:04:48;3.83;;;1.10;;
21416;SDS011;10869;52.238;10.716;2023-12-29T04:07:14;6.43;;;1.77;;
21416;SDS011;10869;52.238;10.716;2023-12-29T04:09:39;4.80;;;1.10;;
21416;SDS011;10869;52.238;10.716;2023-12-29T04:12:05;2.03;;;0.90;;
21416;SDS011;10869;52.238;10.716;2023-12-29T04:14:31;2.80;;;1.03;;
21416;SDS011;10869;52.238;10.716;2023-12-29T04:16:57;5.37;;;1.03;;
21416;SDS011;10869;52.238;10.716;2023-12-29T04:19:24;2.83;;;0.90;;
21416;SDS011;10869;52.238;10.716;2023-12-29T04:21:49;4.00;;;0.90;;
21416;SDS011;10869;52.238;10.716;2023-12-29T04:24:15;5.93;;;1.30;;
21416;SDS011;10869;52.238;10.716;2023-12-29T04:26:41;3.47;;;1.13;;
21416;SDS011;10869;52.238;10.716;2023-12-29T04:29:06;4.70;;;1.07;;
21416;SDS011;10869;52.238;10.716;2023-12-29T04:31:32;5.20;;;0.90;;
21416;SDS011;10869;52.238;10.716;2023-12-29T04:34:00;4.97;;;1.10;;
21416;SDS011;10869;52.238;10.716;2023-12-29T04:36:26;5.67;;;1.40;;
21416;SDS011;10869;52.238;10.716;2023-12-29T04:38:55;6.27;;;1.53;;
21416;SDS011;10869;52.238;10.716;2023-12-29T04:41:24;4.03;;;1.10;;
21416;SDS011;10869;52.238;10.716;2023-12-29T04:43:50;5.63;;;1.40;;
21416;SDS011;10869;52.238;10.716;2023-12-29T04:46:16;3.93;;;1.23;;
21416;SDS011;10869;52.238;10.716;2023-12-29T04:48:42;4.20;;;1.17;;
21416;SDS011;10869;52.238;10.716;2023-12-29T04:51:09;7.33;;;1.23;;
21416;SDS011;10869;52.238;10.716;2023-12-29T04:53:36;6.53;;;1.23;;
21416;SDS011;10869;52.238;10.716;2023-12-29T04:56:02;6.57;;;1.53;;
21416;SDS011;10869;52.238;10.716;2023-12-29T04:58:27;5.53;;;1.47;;
21416;SDS011;10869;52.238;10.716;2023-12-29T05:00:53;3.30;;;0.97;;
21416;SDS011;10869;52.238;10.716;2023-12-29T05:03:19;5.60;;;1.20;;
21416;SDS011;10869;52.238;10.716;2023-12-29T05:05:45;5.30;;;1.47;;
21416;SDS011;10869;52.238;10.716;2023-12-29T05:08:11;7.37;;;1.60;;
21416;SDS011;10869;52.238;10.716;2023-12-29T05:10:36;3.83;;;1.10;;
21416;SDS011;10869;52.238;10.716;2023-12-29T05:13:03;4.43;;;1.50;;
21416;SDS011;10869;52.238;10.716;2023-12-29T05:15:29;6.70;;;1.63;;
21416;SDS011;10869;52.238;10.716;2023-12-29T05:17:54;3.40;;;1.23;;
21416;SDS011;10869;52.238;10.716;2023-12-29T05:20:23;4.90;;;1.80;;
21416;SDS011;10869;52.238;10.716;2023-12-29T05:22:49;3.40;;;1.23;;
21416;SDS011;10869;52.238;10.716;2023-12-29T05:25:15;2.60;;;1.10;;
21416;SDS011;10869;52.238;10.716;2023-12-29T05:27:40;2.77;;;1.13;;
21416;SDS011;10869;52.238;10.716;2023-12-29T05:30:07;3.37;;;1.23;;
21416;SDS011;10869;52.238;10.716;2023-12-29T05:32:32;3.27;;;1.47;;
21416;SDS011;10869;52.238;10.716;2023-12-29T05:34:58;3.67;;;1.50;;
21416;SDS011;10869;52.238;10.716;2023-12-29T05:37:24;5.43;;;1.50;;
21416;SDS011;10869;52.238;10.716;2023-12-29T05:39:50;7.13;;;1.50;;
21416;SDS011;10869;52.238;10.716;2023-12-29T05:42:15;5.73;;;1.63;;
21416;SDS011;10869;52.238;10.716;2023-12-29T05:44:41;4.10;;;1.53;;
21416;SDS011;10869;52.238;10.716;2023-12-29T05:47:07;2.83;;;1.30;;
21416;SDS011;10869;52.238;10.716;2023-12-29T05:49:36;6.90;;;2.30;;
21416;SDS011;10869;52.238;10.716;2023-12-29T05:52:08;9.17;;;1.90;;
21416;SDS011;10869;52.238;10.716;2023-12-29T05:54:34;5.17;;;1.80;;
21416;SDS011;10869;52.238;10.716;2023-12-29T05:57:00;5.80;;;1.80;;
21416;SDS011;10869;52.238;10.716;2023-12-29T05:59:26;4.53;;;1.27;;
21416;SDS011;10869;52.238;10.716;2023-12-29T06:01:53;5.47;;;1.70;;
21416;SDS011;10869;52.238;10.716;2023-12-29T06:04:21;11.20;;;4.53;;
21416;SDS011;10869;52.238;10.716;2023-12-29T06:06:49;9.27;;;2.00;;
21416;SDS011;10869;52.238;10.716;2023-12-29T06:09:15;13.63;;;4.27;;
21416;SDS011;10869;52.238;10.716;2023-12-29T06:11:46;13.23;;;4.80;;
21416;SDS011;10869;52.238;10.716;2023-12-29T06:14:12;12.13;;;4.83;;
21416;SDS011;10869;52.238;10.716;2023-12-29T06:16:38;14.40;;;5.73;;
21416;SDS011;10869;52.238;10.716;2023-12-29T06:19:06;6.13;;;3.17;;
21416;SDS011;10869;52.238;10.716;2023-12-29T06:21:32;5.00;;;2.17;;
21416;SDS011;10869;52.238;10.716;2023-12-29T06:24:06;3.27;;;1.40;;
21416;SDS011;10869;52.238;10.716;2023-12-29T06:26:33;11.87;;;4.63;;
21416;SDS011;10869;52.238;10.716;2023-12-29T06:28:59;18.47;;;8.60;;
21416;SDS011;10869;52.238;10.716;2023-12-29T06:31:25;12.53;;;5.40;;
21416;SDS011;10869;52.238;10.716;2023-12-29T06:33:50;5.63;;;1.90;;
21416;SDS011;10869;52.238;10.716;2023-12-29T06:36:16;6.70;;;2.30;;
21416;SDS011;10869;52.238;10.716;2023-12-29T06:38:43;8.63;;;2.43;;
21416;SDS011;10869;52.238;10.716;2023-12-29T06:41:13;5.93;;;2.13;;
21416;SDS011;10869;52.238;10.716;2023-12-29T06:43:39;4.40;;;1.63;;
21416;SDS011;10869;52.238;10.716;2023-12-29T06:46:05;4.83;;;1.80;;
21416;SDS011;10869;52.238;10.716;2023-12-29T06:48:36;6.10;;;1.90;;
21416;SDS011;10869;52.238;10.716;2023-12-29T06:51:02;8.63;;;1.93;;
21416;SDS011;10869;52.238;10.716;2023-12-29T06:53:28;3.50;;;1.40;;
21416;SDS011;10869;52.238;10.716;2023-12-29T06:55:55;5.83;;;1.90;;
21416;SDS011;10869;52.238;10.716;2023-12-29T06:58:22;5.33;;;1.43;;
21416;SDS011;10869;52.238;10.716;2023-12-29T07:00:47;4.20;;;1.50;;
21416;SDS011;10869;52.238;10.716;2023-12-29T07:06:37;5.23;;;1.90;;
21416;SDS011;10869;52.238;10.716;2023-12-29T07:09:06;4.57;;;1.40;;
21416;SDS011;10869;52.238;10.716;2023-12-29T07:11:35;6.47;;;1.80;;
21416;SDS011;10869;52.238;10.716;2023-12-29T07:14:06;6.53;;;2.37;;
21416;SDS011;10869;52.238;10.716;2023-12-29T07:16:32;4.20;;;1.47;;
21416;SDS011;10869;52.238;10.716;2023-12-29T07:18:58;4.97;;;1.50;;
21416;SDS011;10869;52.238;10.716;2023-12-29T07:21:24;5.67;;;1.73;;
21416;SDS011;10869;52.238;10.716;2023-12-29T07:23:49;7.43;;;1.87;;
21416;SDS011;10869;52.238;10.716;2023-12-29T07:27:12;5.20;;;1.70;;
21416;SDS011;10869;52.238;10.716;2023-12-29T08:44:48;8.27;;;1.97;;
21416;SDS011;10869;52.238;10.716;2023-12-29T08:47:27;9.23;;;3.37;;
21416;SDS011;10869;52.238;10.716;2023-12-29T08:49:53;7.70;;;2.53;;
21416;SDS011;10869;52.238;10.716;2023-12-29T08:52:22;7.90;;;2.00;;
21416;SDS011;10869;52.238;10.716;2023-12-29T08:54:48;8.30;;;3.00;;
21416;SDS011;10869;52.238;10.716;2023-12-29T08:57:14;12.77;;;3.50;;
21416;SDS011;10869;52.238;10.716;2023-12-29T08:59:39;11.53;;;3.80;;
21416;SDS011;10869;52.238;10.716;2023-12-29T09:02:06;9.97;;;2.00;;
21416;SDS011;10869;52.238;10.716;2023-12-29T09:04:32;6.53;;;1.50;;
21416;SDS011;10869;52.238;10.716;2023-12-29T09:06:57;6.60;;;1.67;;
21416;SDS011;10869;52.238;10.716;2023-12-29T09:09:23;9.00;;;2.00;;
21416;SDS011;10869;52.238;10.716;2023-12-29T09:15:14;9.47;;;2.47;;
21416;SDS011;10869;52.238;10.716;2023-12-29T09:17:40;8.67;;;1.53;;
21416;SDS011;10869;52.238;10.716;2023-12-29T09:20:06;10.47;;;1.53;;
21416;SDS011;10869;52.238;10.716;2023-12-29T09:22:33;10.07;;;1.40;;
21416;SDS011;10869;52.238;10.716;2023-12-29T09:24:59;4.90;;;1.90;;
21416;SDS011;10869;52.238;10.716;2023-12-29T09:27:24;9.87;;;1.97;;
21416;SDS011;10869;52.238;10.716;2023-12-29T09:29:51;10.77;;;1.90;;
21416;SDS011;10869;52.238;10.716;2023-12-29T09:32:17;10.00;;;1.80;;
21416;SDS011;10869;52.238;10.716;2023-12-29T09:34:43;6.27;;;1.40;;
21416;SDS011;10869;52.238;10.716;2023-12-29T09:37:10;7.57;;;1.63;;
21416;SDS011;10869;52.238;10.716;2023-12-29T09:39:36;8.23;;;1.70;;
21416;SDS011;10869;52.238;10.716;2023-12-29T09:42:03;11.13;;;2.10;;
21416;SDS011;10869;52.238;10.716;2023-12-29T09:44:49;6.40;;;1.73;;
21416;SDS011;10869;52.238;10.716;2023-12-29T09:47:23;12.17;;;2.00;;
21416;SDS011;10869;52.238;10.716;2023-12-29T09:56:37;8.03;;;1.63;;
21416;SDS011;10869;52.238;10.716;2023-12-29T09:59:03;5.23;;;1.83;;
21416;SDS011;10869;52.238;10.716;2023-12-29T10:01:30;4.97;;;1.40;;
21416;SDS011;10869;52.238;10.716;2023-12-29T10:07:25;6.30;;;1.13;;
21416;SDS011;10869;52.238;10.716;2023-12-29T10:10:01;7.90;;;2.10;;
21416;SDS011;10869;52.238;10.716;2023-12-29T10:12:29;5.77;;;1.43;;
21416;SDS011;10869;52.238;10.716;2023-12-29T10:15:05;5.80;;;1.30;;
21416;SDS011;10869;52.238;10.716;2023-12-29T10:25:33;10.47;;;1.67;;
21416;SDS011;10869;52.238;10.716;2023-12-29T10:33:38;7.87;;;1.50;;
21416;SDS011;10869;52.238;10.716;2023-12-29T10:36:49;5.47;;;1.50;;
21416;SDS011;10869;52.238;10.716;2023-12-29T10:43:07;5.33;;;1.43;;
21416;SDS011;10869;52.238;10.716;2023-12-29T10:45:34;6.37;;;1.30;;
21416;SDS011;10869;52.238;10.716;2023-12-29T10:48:01;6.63;;;1.90;;
21416;SDS011;10869;52.238;10.716;2023-12-29T10:56:25;5.50;;;1.17;;
21416;SDS011;10869;52.238;10.716;2023-12-29T10:59:09;3.77;;;1.33;;
21416;SDS011;10869;52.238;10.716;2023-12-29T11:01:38;6.80;;;1.33;;
21416;SDS011;10869;52.238;10.716;2023-12-29T11:04:05;6.63;;;1.33;;
21416;SDS011;10869;52.238;10.716;2023-12-29T11:06:41;5.03;;;1.10;;
21416;SDS011;10869;52.238;10.716;2023-12-29T11:09:10;3.80;;;1.07;;
21416;SDS011;10869;52.238;10.716;2023-12-29T11:11:37;6.33;;;1.20;;
21416;SDS011;10869;52.238;10.716;2023-12-29T11:14:04;7.10;;;2.00;;
21416;SDS011;10869;52.238;10.716;2023-12-29T11:27:10;4.90;;;1.43;;
21416;SDS011;10869;52.238;10.716;2023-12-29T11:34:51;5.60;;;1.43;;
21416;SDS011;10869;52.238;10.716;2023-12-29T11:43:15;5.67;;;1.40;;
21416;SDS011;10869;52.238;10.716;2023-12-29T11:45:45;8.60;;;1.40;;
21416;SDS011;10869;52.238;10.716;2023-12-29T11:48:11;3.40;;;1.37;;
21416;SDS011;10869;52.238;10.716;2023-12-29T11:50:38;5.80;;;1.30;;
21416;SDS011;10869;52.238;10.716;2023-12-29T11:53:07;4.13;;;1.10;;
21416;SDS011;10869;52.238;10.716;2023-12-29T11:55:39;3.73;;;1.23;;
21416;SDS011;10869;52.238;10.716;2023-12-29T11:58:23;5.17;;;1.33;;
21416;SDS011;10869;52.238;10.716;2023-12-29T12:00:53;5.17;;;1.37;;
21416;SDS011;10869;52.238;10.716;2023-12-29T12:03:27;4.03;;;1.23;;
21416;SDS011;10869;52.238;10.716;2023-12-29T12:05:56;4.70;;;0.90;;
21416;SDS011;10869;52.238;10.716;2023-12-29T12:08:30;2.90;;;0.83;;
21416;SDS011;10869;52.238;10.716;2023-12-29T12:13:55;6.03;;;1.10;;
21416;SDS011;10869;52.238;10.716;2023-12-29T12:17:07;1.67;;;0.87;;
21416;SDS011;10869;52.238;10.716;2023-12-29T12:19:08;4.20;;;0.97;;
21416;SDS011;10869;52.238;10.716;2023-12-29T12:21:35;3.07;;;1.00;;
21416;SDS011;10869;52.238;10.716;2023-12-29T12:24:05;4.10;;;1.00;;
21416;SDS011;10869;52.238;10.716;2023-12-29T12:26:31;3.00;;;0.80;;
21416;SDS011;10869;52.238;10.716;2023-12-29T12:28:58;1.97;;;0.93;;
21416;SDS011;10869;52.238;10.716;2023-12-29T12:31:24;2.37;;;0.90;;
21416;SDS011;10869;52.238;10.716;2023-12-29T12:33:54;3.83;;;0.67;;
21416;SDS011;10869;52.238;10.716;2023-12-29T12:36:23;3.53;;;1.00;;
21416;SDS011;10869;52.238;10.716;2023-12-29T12:38:59;1.87;;;1.03;;
21416;SDS011;10869;52.238;10.716;2023-12-29T12:41:25;1.73;;;0.70;;
21416;SDS011;10869;52.238;10.716;2023-12-29T12:46:59;3.23;;;0.90;;
21416;SDS011;10869;52.238;10.716;2023-12-29T12:49:31;6.37;;;0.73;;
21416;SDS011;10869;52.238;10.716;2023-12-29T12:51:56;4.30;;;0.87;;
21416;SDS011;10869;52.238;10.716;2023-12-29T12:54:29;4.23;;;0.90;;
21416;SDS011;10869;52.238;10.716;2023-12-29T12:56:55;1.57;;;0.60;;
21416;SDS011;10869;52.238;10.716;2023-12-29T12:59:20;3.43;;;0.50;;
21416;SDS011;10869;52.238;10.716;2023-12-29T13:01:46;2.37;;;0.80;;
21416;SDS011;10869;52.238;10.716;2023-12-29T13:07:34;4.53;;;1.10;;
21416;SDS011;10869;52.238;10.716;2023-12-29T13:10:01;1.73;;;0.87;;
21416;SDS011;10869;52.238;10.716;2023-12-29T13:12:29;5.83;;;1.50;;
21416;SDS011;10869;52.238;10.716;2023-12-29T13:15:04;6.27;;;2.10;;
21416;SDS011;10869;52.238;10.716;2023-12-29T13:17:36;1.60;;;0.60;;
21416;SDS011;10869;52.238;10.716;2023-12-29T13:20:02;1.27;;;0.43;;
21416;SDS011;10869;52.238;10.716;2023-12-29T13:22:29;2.00;;;0.57;;
21416;SDS011;10869;52.238;10.716;2023-12-29T13:24:55;1.67;;;0.80;;
21416;SDS011;10869;52.238;10.716;2023-12-29T13:27:21;2.30;;;0.40;;
21416;SDS011;10869;52.238;10.716;2023-12-29T13:33:10;1.40;;;0.50;;
21416;SDS011;10869;52.238;10.716;2023-12-29T13:39:08;2.77;;;0.63;;
21416;SDS011;10869;52.238;10.716;2023-12-29T13:41:45;1.57;;;0.33;;
21416;SDS011;10869;52.238;10.716;2023-12-29T13:47:38;2.57;;;0.50;;
21416;SDS011;10869;52.238;10.716;2023-12-29T13:50:11;3.13;;;1.40;;
21416;SDS011;10869;52.238;10.716;2023-12-29T13:52:37;6.00;;;1.93;;
21416;SDS011;10869;52.238;10.716;2023-12-29T13:55:08;9.23;;;4.43;;
21416;SDS011;10869;52.238;10.716;2023-12-29T13:57:37;9.07;;;4.43;;
21416;SDS011;10869;52.238;10.716;2023-12-29T14:06:37;8.17;;;3.10;;
21416;SDS011;10869;52.238;10.716;2023-12-29T14:09:13;4.43;;;1.43;;
21416;SDS011;10869;52.238;10.716;2023-12-29T14:11:48;6.57;;;2.27;;
21416;SDS011;10869;52.238;10.716;2023-12-29T14:14:21;3.90;;;1.43;;
21416;SDS011;10869;52.238;10.716;2023-12-29T14:17:03;7.33;;;2.10;;
21416;SDS011;10869;52.238;10.716;2023-12-29T14:19:37;4.77;;;1.80;;
21416;SDS011;10869;52.238;10.716;2023-12-29T14:22:04;3.93;;;1.33;;
21416;SDS011;10869;52.238;10.716;2023-12-29T14:24:32;3.97;;;1.50;;
21416;SDS011;10869;52.238;10.716;2023-12-29T14:26:57;6.90;;;1.50;;
21416;SDS011;10869;52.238;10.716;2023-12-29T14:29:24;3.03;;;1.40;;
21416;SDS011;10869;52.238;10.716;2023-12-29T14:31:53;5.37;;;1.40;;
21416;SDS011;10869;52.238;10.716;2023-12-29T14:34:22;5.00;;;2.17;;
21416;SDS011;10869;52.238;10.716;2023-12-29T14:36:51;3.97;;;1.47;;
21416;SDS011;10869;52.238;10.716;2023-12-29T14:39:17;4.13;;;1.70;;
21416;SDS011;10869;52.238;10.716;2023-12-29T14:41:45;3.10;;;1.00;;
21416;SDS011;10869;52.238;10.716;2023-12-29T14:44:19;1.17;;;0.60;;
21416;SDS011;10869;52.238;10.716;2023-12-29T14:46:49;2.07;;;0.87;;
21416;SDS011;10869;52.238;10.716;2023-12-29T14:49:14;2.80;;;1.20;;
21416;SDS011;10869;52.238;10.716;2023-12-29T14:51:40;1.53;;;1.10;;
21416;SDS011;10869;52.238;10.716;2023-12-29T14:54:15;1.80;;;1.00;;
21416;SDS011;10869;52.238;10.716;2023-12-29T14:56:40;1.80;;;0.70;;
21416;SDS011;10869;52.238;10.716;2023-12-29T14:59:06;2.47;;;1.20;;
21416;SDS011;10869;52.238;10.716;2023-12-29T15:01:32;4.60;;;1.47;;
21416;SDS011;10869;52.238;10.716;2023-12-29T15:03:58;3.47;;;1.80;;
21416;SDS011;10869;52.238;10.716;2023-12-29T15:06:23;4.03;;;2.00;;
21416;SDS011;10869;52.238;10.716;2023-12-29T15:08:49;6.73;;;3.03;;
21416;SDS011;10869;52.238;10.716;2023-12-29T15:11:15;5.13;;;1.97;;
21416;SDS011;10869;52.238;10.716;2023-12-29T15:13:41;6.30;;;2.40;;
21416;SDS011;10869;52.238;10.716;2023-12-29T15:16:07;5.17;;;2.30;;
21416;SDS011;10869;52.238;10.716;2023-12-29T15:18:33;6.73;;;3.23;;
21416;SDS011;10869;52.238;10.716;2023-12-29T15:20:59;2.87;;;1.40;;
21416;SDS011;10869;52.238;10.716;2023-12-29T15:23:25;4.13;;;1.47;;
21416;SDS011;10869;52.238;10.716;2023-12-29T15:25:52;5.83;;;2.73;;
21416;SDS011;10869;52.238;10.716;2023-12-29T15:31:43;4.30;;;1.80;;
21416;SDS011;10869;52.238;10.716;2023-12-29T15:37:32;7.97;;;3.83;;
21416;SDS011;10869;52.238;10.716;2023-12-29T15:39:58;4.57;;;1.80;;
21416;SDS011;10869;52.238;10.716;2023-12-29T15:42:27;5.63;;;1.87;;
21416;SDS011;10869;52.238;10.716;2023-12-29T15:44:52;6.47;;;1.27;;
21416;SDS011;10869;52.238;10.716;2023-12-29T15:47:18;3.47;;;1.30;;
21416;SDS011;10869;52.238;10.716;2023-12-29T15:49:44;6.00;;;1.40;;
21416;SDS011;10869;52.238;10.716;2023-12-29T15:52:09;5.00;;;1.70;;
21416;SDS011;10869;52.238;10.716;2023-12-29T15:57:11;2.77;;;1.40;;
21416;SDS011;10869;52.238;10.716;2023-12-29T19:29:19;1.90;;;1.10;;
21416;SDS011;10869;52.238;10.716;2023-12-29T19:31:45;3.07;;;1.10;;
21416;SDS011;10869;52.238;10.716;2023-12-29T19:34:12;4.17;;;1.33;;
21416;SDS011;10869;52.238;10.716;2023-12-29T19:40:02;3.57;;;1.20;;
21416;SDS011;10869;52.238;10.716;2023-12-29T19:46:03;2.70;;;1.00;;
21416;SDS011;10869;52.238;10.716;2023-12-29T19:48:29;8.73;;;3.70;;
21416;SDS011;10869;52.238;10.716;2023-12-29T19:53:32;13.80;;;7.73;;
21416;SDS011;10869;52.238;10.716;2023-12-29T19:55:58;14.27;;;6.30;;
21416;SDS011;10869;52.238;10.716;2023-12-29T19:58:24;9.70;;;4.53;;
21416;SDS011;10869;52.238;10.716;2023-12-29T20:00:59;6.27;;;2.70;;
21416;SDS011;10869;52.238;10.716;2023-12-29T20:06:48;3.47;;;1.50;;
21416;SDS011;10869;52.238;10.716;2023-12-29T20:09:14;2.13;;;0.60;;
21416;SDS011;10869;52.238;10.716;2023-12-29T20:11:40;2.20;;;0.87;;
21416;SDS011;10869;52.238;10.716;2023-12-29T20:14:07;3.50;;;1.60;;
21416;SDS011;10869;52.238;10.716;2023-12-29T20:19:56;2.20;;;0.80;;
21416;SDS011;10869;52.238;10.716;2023-12-29T20:25:44;1.33;;;0.50;;
21416;SDS011;10869;52.238;10.716;2023-12-29T20:28:11;2.10;;;0.80;;
21416;SDS011;10869;52.238;10.716;2023-12-29T20:30:40;1.97;;;0.80;;
21416;SDS011;10869;52.238;10.716;2023-12-29T20:33:06;2.50;;;0.60;;
21416;SDS011;10869;52.238;10.716;2023-12-29T20:35:32;3.53;;;0.70;;
21416;SDS011;10869;52.238;10.716;2023-12-29T20:37:57;1.67;;;0.80;;
21416;SDS011;10869;52.238;10.716;2023-12-29T20:40:23;1.37;;;0.60;;
21416;SDS011;10869;52.238;10.716;2023-12-29T20:46:14;3.10;;;1.03;;
21416;SDS011;10869;52.238;10.716;2023-12-29T20:48:40;10.77;;;3.63;;
21416;SDS011;10869;52.238;10.716;2023-12-29T20:51:05;4.03;;;1.30;;
21416;SDS011;10869;52.238;10.716;2023-12-29T20:53:33;1.37;;;0.60;;
21416;SDS011;10869;52.238;10.716;2023-12-29T20:56:01;2.20;;;0.70;;
21416;SDS011;10869;52.238;10.716;2023-12-29T21:01:54;6.97;;;1.93;;
21416;SDS011;10869;52.238;10.716;2023-12-29T21:04:19;5.63;;;1.23;;
21416;SDS011;10869;52.238;10.716;2023-12-29T21:15:03;2.63;;;0.50;;
21416;SDS011;10869;52.238;10.716;2023-12-29T21:17:30;7.10;;;0.93;;
21416;SDS011;10869;52.238;10.716;2023-12-29T21:19:57;4.67;;;0.90;;
21416;SDS011;10869;52.238;10.716;2023-12-29T21:22:23;2.67;;;0.53;;
21416;SDS011;10869;52.238;10.716;2023-12-29T21:28:12;6.87;;;1.30;;
21416;SDS011;10869;52.238;10.716;2023-12-29T21:30:38;1.83;;;0.80;;
21416;SDS011;10869;52.238;10.716;2023-12-29T21:33:04;4.90;;;1.30;;
21416;SDS011;10869;52.238;10.716;2023-12-29T21:35:29;5.60;;;1.93;;
21416;SDS011;10869;52.238;10.716;2023-12-29T21:37:55;5.30;;;1.43;;
21416;SDS011;10869;52.238;10.716;2023-12-29T21:43:43;5.00;;;1.47;;
21416;SDS011;10869;52.238;10.716;2023-12-29T21:46:10;5.20;;;1.17;;
21416;SDS011;10869;52.238;10.716;2023-12-29T21:48:36;6.83;;;1.37;;
21416;SDS011;10869;52.238;10.716;2023-12-29T21:54:23;4.20;;;1.40;;
21416;SDS011;10869;52.238;10.716;2023-12-29T22:02:46;3.97;;;1.20;;
21416;SDS011;10869;52.238;10.716;2023-12-29T22:08:34;4.33;;;0.90;;
21416;SDS011;10869;52.238;10.716;2023-12-29T22:11:00;7.97;;;1.63;;
21416;SDS011;10869;52.238;10.716;2023-12-29T22:13:25;6.63;;;1.60;;
21416;SDS011;10869;52.238;10.716;2023-12-29T22:15:51;8.30;;;1.47;;
21416;SDS011;10869;52.238;10.716;2023-12-29T22:18:17;5.40;;;1.40;;
21416;SDS011;10869;52.238;10.716;2023-12-29T22:20:42;5.07;;;1.03;;
21416;SDS011;10869;52.238;10.716;2023-12-29T22:23:08;6.33;;;1.17;;
21416;SDS011;10869;52.238;10.716;2023-12-29T22:25:34;4.23;;;0.83;;
21416;SDS011;10869;52.238;10.716;2023-12-29T22:28:02;9.23;;;1.43;;
21416;SDS011;10869;52.238;10.716;2023-12-29T22:30:28;4.00;;;1.00;;
21416;SDS011;10869;52.238;10.716;2023-12-29T22:32:54;4.07;;;1.10;;
21416;SDS011;10869;52.238;10.716;2023-12-29T22:35:20;6.30;;;1.10;;
21416;SDS011;10869;52.238;10.716;2023-12-29T22:37:47;5.40;;;1.40;;
21416;SDS011;10869;52.238;10.716;2023-12-29T22:40:14;2.83;;;0.50;;
21416;SDS011;10869;52.238;10.716;2023-12-29T22:42:40;4.40;;;0.67;;
21416;SDS011;10869;52.238;10.716;2023-12-29T22:45:08;5.43;;;0.90;;
21416;SDS011;10869;52.238;10.716;2023-12-29T22:47:36;2.80;;;0.53;;
21416;SDS011;10869;52.238;10.716;2023-12-29T22:50:02;1.87;;;0.60;;
21416;SDS011;10869;52.238;10.716;2023-12-29T22:52:28;2.63;;;0.60;;
21416;SDS011;10869;52.238;10.716;2023-12-29T22:54:53;4.27;;;1.20;;
21416;SDS011;10869;52.238;10.716;2023-12-29T22:57:19;4.33;;;0.93;;
21416;SDS011;10869;52.238;10.716;2023-12-29T22:59:45;9.40;;;1.10;;
21416;SDS011;10869;52.238;10.716;2023-12-29T23:02:10;2.73;;;0.80;;
21416;SDS011;10869;52.238;10.716;2023-12-29T23:04:36;5.37;;;0.90;;
21416;SDS011;10869;52.238;10.716;2023-12-29T23:07:02;5.03;;;1.57;;
21416;SDS011;10869;52.238;10.716;2023-12-29T23:09:28;3.03;;;0.80;;
21416;SDS011;10869;52.238;10.716;2023-12-29T23:11:56;4.97;;;0.77;;
21416;SDS011;10869;52.238;10.716;2023-12-29T23:14:24;3.77;;;1.50;;
21416;SDS011;10869;52.238;10.716;2023-12-29T23:16:50;2.53;;;0.57;;
21416;SDS011;10869;52.238;10.716;2023-12-29T23:19:15;3.30;;;0.80;;
21416;SDS011;10869;52.238;10.716;2023-12-29T23:21:43;6.17;;;1.20;;
21416;SDS011;10869;52.238;10.716;2023-12-29T23:24:09;4.30;;;1.53;;
21416;SDS011;10869;52.238;10.716;2023-12-29T23:26:41;4.27;;;1.43;;
21416;SDS011;10869;52.238;10.716;2023-12-29T23:29:08;4.80;;;1.27;;
21416;SDS011;10869;52.238;10.716;2023-12-29T23:31:34;2.73;;;0.93;;
21416;SDS011;10869;52.238;10.716;2023-12-29T23:34:00;4.77;;;1.40;;
21416;SDS011;10869;52.238;10.716;2023-12-29T23:36:25;8.13;;;1.30;;
21416;SDS011;10869;52.238;10.716;2023-12-29T23:38:51;3.23;;;1.07;;
21416;SDS011;10869;52.238;10.716;2023-12-29T23:41:18;4.67;;;1.00;;
21416;SDS011;10869;52.238;10.716;2023-12-29T23:43:44;5.37;;;1.73;;
21416;SDS011;10869;52.238;10.716;2023-12-29T23:46:17;9.03;;;1.77;;
21416;SDS011;10869;52.238;10.716;2023-12-29T23:48:43;5.07;;;1.43;;
21416;SDS011;10869;52.238;10.716;2023-12-29T23:51:08;5.73;;;1.27;;
21416;SDS011;10869;52.238;10.716;2023-12-29T23:53:34;4.73;;;1.53;;
21416;SDS011;10869;52.238;10.716;2023-12-29T23:56:00;4.60;;;1.20;;
21416;SDS011;10869;52.238;10.716;2023-12-29T23:58:25;7.03;;;1.60;;
